Flight Track Log - Related Links

Times and Time Zones

All times are in EDT time to prevent confusion due to time zone crossing. See the GJS3657 flight status page for this flight to view local times or setup timezone preferences in your user account.

Time Position Orientation Groundspeed Altitude Reporting Facility
EDT Latitude Longitude Course Direction KTS MPH feet Rate Location/Type
Sun 04:58:07 PM 39.9011 -84.2364 323° Northwest 148 170 1,400  Level Indianapolis Center
Sun 04:58:50 PM 39.8942 -84.2736 256° West 159 183 2,700 1,630 Climbing Indianapolis Center
Sun 04:59:28 PM 39.8897 -84.3167 262° West 180 207 3,600 1,800 Climbing Indianapolis Center
Sun 05:00:30 PM 39.9175 -84.3967 294° West 242 278 5,700 2,661 Climbing Indianapolis Center
Sun 05:01:00 PM 40.1789 -84.4788 323° Northwest  Level FlightAware Approximate
Sun 05:01:32 PM 39.9897 -84.4450 333° Northwest 283 326 9,100  Level Indianapolis Center
Sun 05:02:00 PM 40.2478 -84.5477 323° Northwest  Level FlightAware Approximate
Sun 05:02:34 PM 40.0600 -84.4978 330° Northwest 287 330 10,900  Level Indianapolis Center
Sun 05:03:00 PM 40.3168 -84.6167 323° Northwest  Level FlightAware Approximate
Sun 05:03:35 PM 40.1394 -84.5619 328° Northwest 332 382 10,900  Level Indianapolis Center
Sun 05:04:37 PM 40.2289 -84.6253 332° Northwest 359 413 12,300 1,887 Climbing Indianapolis Center
Sun 05:05:39 PM 40.3139 -84.6903 330° Northwest 353 406 14,800 2,226 Climbing Indianapolis Center
Sun 05:06:41 PM 40.4186 -84.7708 330° Northwest 369 425 16,900 1,839 Climbing Indianapolis Center
Sun 05:07:43 PM 40.5158 -84.8397 332° Northwest 388 447 18,600 1,548 Climbing Indianapolis Center
Sun 05:08:45 PM 40.6047 -84.9067 330° Northwest 403 464 20,100 1,500 Climbing Indianapolis Center
Sun 05:09:15 PM 40.6497 -84.9394 331° Northwest 404 465 20,900 1,253 Climbing Chicago Center
Sun 05:10:16 PM 40.7356 -85.0378 319° Northwest 426 490 22,000 537 Climbing Chicago Center
Sun 05:11:18 PM 40.8014 -85.1986 298° West 419 482 22,000  Level Chicago Center
Sun 05:12:20 PM 40.8497 -85.3222 297° West 395 455 22,000  Level Chicago Center
Sun 05:13:22 PM 40.8964 -85.4408 298° West 372 428 22,000  Level Chicago Center
Sun 05:14:24 PM 40.9425 -85.5592 297° West 364 419 22,000  Level Chicago Center
Sun 05:15:26 PM 40.9931 -85.6861 298° West 383 441 22,000  Level Chicago Center
Sun 05:16:28 PM 41.0442 -85.8189 297° West 399 459 22,000  Level Chicago Center
Sun 05:17:30 PM 41.1103 -85.9908 297° West 430 495 22,000  Level Chicago Center
Sun 05:18:32 PM 41.1653 -86.1361 297° West 439 505 22,000  Level Chicago Center
Sun 05:19:34 PM 41.2214 -86.2833 297° West 443 510 22,000  Level Chicago Center
Sun 05:20:36 PM 41.2767 -86.4286 297° West 441 507 22,000 -336 Level Chicago Center
Sun 05:21:39 PM 41.3322 -86.5756 297° West 444 511 21,300 -1,296 Descending Chicago Center
Sun 05:22:41 PM 41.3853 -86.7192 296° West 430 495 19,300 -1,887 Descending Chicago Center
Sun 05:23:43 PM 41.4381 -86.8581 297° West 424 488 17,400 -1,887 Descending Chicago Center
Sun 05:24:45 PM 41.4964 -87.0156 296° West 403 464 15,400 -1,887 Descending Chicago Center
Sun 05:25:47 PM 41.5478 -87.1333 300° West 377 434 13,500 -1,632 Descending Chicago Center
Sun 05:26:50 PM 41.6181 -87.2361 312° West 375 432 12,000 -1,016 Descending Chicago Center
Sun 05:27:51 PM 41.6831 -87.3253 314° West 349 402 11,400 -878 Descending Chicago Center
Sun 05:28:53 PM 41.7611 -87.4028 323° Northwest 303 349 10,200 -1,065 Descending Chicago Center
Sun 05:29:55 PM 41.8311 -87.4506 333° Northwest 288 331 9,200 -677 Descending Chicago Center
Sun 05:30:57 PM 41.8961 -87.4983 331° Northwest 269 310 8,800 -581 Descending Chicago Center
Sun 05:31:59 PM 41.9414 -87.5314 331° Northwest 198 228 8,000 -532 Descending Chicago Center
Sun 05:33:01 PM 41.9825 -87.5750 322° Northwest 188 216 7,700 -1,210 Descending Chicago Center
Sun 05:34:03 PM 42.0314 -87.6272 322° Northwest 188 216 5,500 -2,032 Descending Chicago Center
Sun 05:35:05 PM 42.0675 -87.6772 314° West 188 216 3,500 -1,452 Descending Chicago Center
Sun 05:36:07 PM 42.0694 -87.7458 272° West 185 213 2,500 -484 Descending Chicago Center
Sun 05:37:09 PM 42.0431 -87.7978 236° Southwest 178 205 2,500  Level Chicago Center

Login

Don't have an account? Register now (free) for customized features, flight alerts, and more!